createdAt,value
2023-01-11T00:01:53.284Z,4.00
2023-01-11T00:04:23.346Z,1.67
2023-01-11T00:06:51.577Z,3.67
2023-01-11T00:09:19.779Z,1.60
2023-01-11T00:11:50.219Z,2.20
2023-01-11T00:14:19.630Z,1.83
2023-01-11T00:16:47.796Z,4.77
2023-01-11T00:19:15.938Z,3.00
2023-01-11T00:21:44.028Z,2.40
2023-01-11T00:24:14.163Z,3.07
2023-01-11T00:26:42.297Z,4.37
2023-01-11T00:29:13.010Z,2.60
2023-01-11T00:31:44.656Z,1.73
2023-01-11T00:34:12.720Z,2.03
2023-01-11T00:36:40.855Z,4.90
2023-01-11T00:39:08.964Z,1.47
2023-01-11T00:41:56.518Z,1.63
2023-01-11T00:44:44.570Z,1.30
2023-01-11T00:47:30.573Z,1.83
2023-01-11T00:49:58.710Z,1.40
2023-01-11T00:52:26.843Z,1.57
2023-01-11T00:54:57.474Z,1.67
2023-01-11T00:57:27.894Z,2.23
2023-01-11T01:04:16.342Z,2.80
2023-01-11T01:06:48.048Z,1.35
2023-01-11T01:09:18.612Z,1.43
2023-01-11T01:11:49.020Z,2.03
2023-01-11T01:14:29.415Z,1.47
2023-01-11T01:16:59.271Z,1.83
2023-01-11T01:19:28.812Z,2.50
2023-01-11T01:25:50.318Z,1.87
2023-01-11T01:28:21.932Z,2.30
2023-01-11T01:30:52.333Z,3.63
2023-01-11T01:33:20.599Z,1.47
2023-01-11T01:35:50.401Z,1.50
2023-01-11T01:38:18.783Z,1.47
2023-01-11T01:40:50.002Z,1.00
2023-01-11T01:43:20.361Z,1.63
2023-01-11T01:45:50.313Z,1.27
2023-01-11T01:48:23.844Z,1.23
2023-01-11T01:50:56.576Z,1.57
2023-01-11T01:53:31.686Z,0.70
2023-01-11T01:56:04.804Z,1.13
2023-01-11T01:58:37.669Z,0.87
2023-01-11T02:01:22.155Z,0.77
2023-01-11T02:03:51.754Z,3.97
2023-01-11T02:06:23.848Z,0.53
2023-01-11T02:09:00.100Z,1.07
2023-01-11T02:11:30.912Z,1.60
2023-01-11T02:14:01.967Z,2.80
2023-01-11T02:16:30.081Z,3.67
2023-01-11T02:18:59.390Z,0.80
2023-01-11T02:21:41.662Z,0.87
2023-01-11T02:24:26.782Z,0.80
2023-01-11T02:27:25.080Z,0.70
2023-01-11T02:30:13.691Z,2.23
2023-01-11T02:32:56.260Z,1.47
2023-01-11T02:35:36.333Z,0.70
2023-01-11T02:38:09.967Z,1.10
2023-01-11T02:40:47.053Z,2.63
2023-01-11T02:43:39.682Z,0.73
2023-01-11T02:46:14.270Z,0.70
2023-01-11T02:48:50.672Z,0.87
2023-01-11T02:51:25.066Z,0.70
2023-01-11T02:53:59.862Z,1.20
2023-01-11T02:56:37.173Z,1.07
2023-01-11T02:59:08.765Z,2.00
2023-01-11T03:01:47.006Z,2.10
2023-01-11T03:04:29.751Z,0.93
2023-01-11T03:07:15.464Z,1.53
2023-01-11T03:09:57.347Z,1.97
2023-01-11T03:12:51.849Z,1.20
2023-01-11T03:15:48.453Z,0.90
2023-01-11T03:18:38.099Z,1.10
2023-01-11T03:21:22.516Z,1.20
2023-01-11T03:24:01.518Z,1.00
2023-01-11T03:26:39.214Z,1.70
2023-01-11T03:29:13.904Z,1.13
2023-01-11T03:31:52.222Z,1.23
2023-01-11T03:34:32.576Z,1.90
2023-01-11T03:37:05.881Z,4.70
2023-01-11T03:39:37.524Z,1.23
2023-01-11T03:42:10.760Z,2.27
2023-01-11T03:44:44.556Z,1.37
2023-01-11T03:47:16.064Z,1.13
2023-01-11T03:49:49.845Z,1.00
2023-01-11T03:52:26.043Z,1.00
2023-01-11T03:54:57.022Z,1.23
2023-01-11T03:57:28.941Z,1.57
2023-01-11T03:59:59.576Z,1.13
2023-01-11T04:02:29.500Z,1.27
2023-01-11T04:04:59.050Z,1.43
2023-01-11T04:07:27.114Z,2.13
2023-01-11T04:09:55.206Z,4.00
2023-01-11T04:12:23.317Z,1.10
2023-01-11T04:14:51.397Z,1.07
2023-01-11T04:17:19.656Z,1.27
2023-01-11T04:19:47.852Z,2.00
2023-01-11T04:22:17.372Z,1.00
2023-01-11T04:24:45.421Z,1.00
2023-01-11T04:27:13.577Z,1.23
2023-01-11T04:29:43.953Z,1.03
2023-01-11T04:32:12.072Z,1.50
2023-01-11T04:34:43.169Z,1.30
2023-01-11T04:37:12.002Z,1.27
2023-01-11T04:39:41.436Z,1.50
2023-01-11T04:42:19.430Z,1.30
2023-01-11T04:44:48.811Z,3.77
2023-01-11T04:47:17.144Z,1.70
2023-01-11T04:49:48.638Z,3.70
2023-01-11T04:52:18.349Z,1.73
2023-01-11T04:54:48.769Z,1.67
2023-01-11T04:57:20.891Z,1.80
2023-01-11T04:59:49.474Z,1.93
2023-01-11T05:02:19.781Z,2.63
2023-01-11T05:04:47.862Z,1.87
2023-01-11T05:07:15.909Z,2.03
2023-01-11T05:09:44.100Z,2.00
2023-01-11T05:12:15.934Z,3.00
2023-01-11T05:14:46.360Z,2.13
2023-01-11T05:17:15.069Z,1.90
2023-01-11T05:19:43.660Z,2.60
2023-01-11T05:22:13.797Z,2.40
2023-01-11T05:24:41.896Z,2.77
2023-01-11T05:27:10.106Z,2.63
2023-01-11T05:29:39.730Z,2.77
2023-01-11T05:32:07.909Z,2.60
2023-01-11T05:34:36.178Z,2.40
2023-01-11T05:37:04.437Z,3.00
2023-01-11T05:39:32.631Z,2.87
2023-01-11T05:42:03.259Z,2.93
2023-01-11T05:44:48.640Z,3.03
2023-01-11T05:47:18.091Z,3.07
2023-01-11T05:49:46.202Z,3.10
2023-01-11T05:52:14.440Z,3.47
2023-01-11T05:54:45.024Z,3.47
2023-01-11T05:57:15.650Z,4.40
2023-01-11T05:59:44.230Z,6.17
2023-01-11T06:02:12.508Z,6.23
2023-01-11T06:04:42.105Z,5.40
2023-01-11T06:07:12.584Z,6.87
2023-01-11T06:09:40.720Z,4.47
2023-01-11T06:12:08.925Z,4.17
2023-01-11T06:14:39.661Z,5.30
2023-01-11T06:17:10.106Z,4.90
2023-01-11T06:19:41.890Z,5.20
2023-01-11T06:22:10.050Z,5.70
2023-01-11T06:24:40.380Z,5.80
2023-01-11T06:27:08.479Z,6.17
2023-01-11T06:29:36.664Z,6.47
2023-01-11T06:32:04.809Z,7.00
2023-01-11T06:34:32.890Z,6.37
2023-01-11T06:37:02.382Z,7.03
2023-01-11T06:39:37.865Z,6.67
2023-01-11T06:42:06.103Z,6.57
2023-01-11T06:44:36.299Z,6.63
2023-01-11T06:47:06.734Z,6.10
2023-01-11T06:49:34.922Z,6.63
2023-01-11T06:52:06.954Z,6.50
2023-01-11T06:54:35.102Z,6.10
2023-01-11T06:57:03.375Z,6.97
2023-01-11T06:59:33.926Z,7.27
2023-01-11T07:02:02.386Z,7.20
2023-01-11T07:04:30.976Z,6.57
2023-01-11T07:06:59.278Z,7.13
2023-01-11T07:09:28.702Z,7.80
2023-01-11T07:11:56.814Z,8.10
2023-01-11T07:14:25.143Z,7.07
2023-01-11T07:16:55.499Z,7.13
2023-01-11T07:19:23.880Z,7.27
2023-01-11T07:21:52.024Z,7.40
2023-01-11T07:24:20.332Z,8.00
2023-01-11T07:26:53.335Z,7.83
2023-01-11T07:29:23.717Z,7.47
2023-01-11T07:31:53.875Z,7.40
2023-01-11T07:34:22.003Z,7.27
2023-01-11T07:36:52.805Z,8.50
2023-01-11T07:39:23.359Z,7.77
2023-01-11T07:42:18.263Z,7.53
2023-01-11T07:44:46.437Z,7.80
2023-01-11T07:47:14.534Z,8.00
2023-01-11T07:49:42.643Z,8.00
2023-01-11T07:52:10.726Z,8.57
2023-01-11T07:54:38.888Z,8.03
2023-01-11T07:57:10.724Z,8.53
2023-01-11T07:59:38.844Z,7.53
2023-01-11T08:02:06.967Z,9.00
2023-01-11T08:04:35.075Z,8.80
2023-01-11T08:07:05.202Z,9.10
2023-01-11T08:09:33.367Z,8.20
2023-01-11T08:12:18.964Z,9.10
2023-01-11T08:14:48.476Z,8.37
2023-01-11T08:17:17.783Z,8.00
2023-01-11T08:19:45.902Z,7.70
2023-01-11T08:22:17.482Z,8.67
2023-01-11T08:24:47.863Z,7.57
2023-01-11T08:27:15.935Z,8.17
2023-01-11T08:29:45.037Z,7.30
2023-01-11T08:32:14.714Z,6.70
2023-01-11T08:34:42.920Z,6.73
2023-01-11T08:37:13.388Z,5.50
2023-01-11T08:39:41.559Z,8.27
2023-01-11T08:42:12.132Z,8.37
2023-01-11T08:44:40.217Z,9.33
2023-01-11T08:47:10.663Z,9.47
2023-01-11T08:49:43.058Z,6.53
2023-01-11T08:52:15.453Z,9.87
2023-01-11T08:54:43.631Z,7.20
2023-01-11T08:57:13.972Z,11.73
2023-01-11T08:59:44.651Z,6.97
2023-01-11T09:02:13.816Z,8.00
2023-01-11T09:04:45.543Z,9.70
2023-01-11T09:07:15.701Z,11.90
2023-01-11T09:09:46.560Z,10.73
2023-01-11T09:12:15.031Z,7.87
2023-01-11T09:14:43.127Z,13.10
2023-01-11T09:17:11.389Z,14.17
2023-01-11T09:19:39.453Z,13.20
2023-01-11T09:22:09.014Z,15.63
2023-01-11T09:24:39.259Z,13.43
2023-01-11T09:27:07.443Z,14.53
2023-01-11T09:29:37.301Z,14.23
2023-01-11T09:32:06.195Z,13.53
2023-01-11T09:34:34.984Z,17.10
2023-01-11T09:37:07.216Z,11.60
2023-01-11T09:39:37.225Z,12.60
2023-01-11T09:42:24.338Z,11.97
2023-01-11T09:44:58.180Z,9.90
2023-01-11T09:47:33.799Z,13.13
2023-01-11T09:50:06.254Z,11.67
2023-01-11T09:52:41.087Z,11.93
2023-01-11T09:55:23.125Z,17.27
2023-01-11T09:58:02.280Z,14.00
2023-01-11T10:00:42.290Z,11.20
2023-01-11T10:03:42.767Z,14.57
2023-01-11T10:06:19.668Z,14.17
2023-01-11T10:18:22.821Z,12.97
2023-01-11T10:18:40.119Z,14.10
2023-01-11T10:21:13.412Z,17.47
2023-01-11T10:23:49.636Z,17.40
2023-01-11T10:26:27.752Z,10.00
2023-01-11T10:29:22.348Z,17.20
2023-01-11T10:32:13.576Z,12.30
2023-01-11T10:35:14.349Z,12.50
2023-01-11T10:38:02.470Z,19.47
2023-01-11T10:40:39.917Z,13.87
2023-01-11T10:43:17.074Z,14.60
2023-01-11T10:45:50.911Z,14.43
2023-01-11T10:48:24.460Z,12.23
2023-01-11T10:51:04.585Z,16.37
2023-01-11T10:53:39.315Z,9.60
2023-01-11T10:56:22.665Z,12.40
2023-01-11T10:59:07.389Z,10.23
2023-01-11T11:01:50.768Z,12.10
2023-01-11T11:04:37.726Z,15.63
2023-01-11T11:07:12.351Z,11.27
2023-01-11T11:09:46.769Z,11.47
2023-01-11T11:12:22.320Z,13.50
2023-01-11T11:14:57.528Z,11.33
2023-01-11T11:17:32.258Z,9.47
2023-01-11T11:20:00.335Z,12.60
2023-01-11T11:22:30.854Z,11.90
2023-01-11T11:25:04.822Z,8.27
2023-01-11T11:27:40.876Z,8.60
2023-01-11T11:30:12.286Z,12.53
2023-01-11T11:32:55.378Z,11.70
2023-01-11T11:35:34.141Z,9.40
2023-01-11T11:38:05.763Z,13.33
2023-01-11T11:40:36.613Z,12.10
2023-01-11T11:43:20.891Z,13.17
2023-01-11T11:45:54.512Z,14.90
2023-01-11T11:48:30.304Z,13.73
2023-01-11T11:51:01.138Z,10.50
2023-01-11T11:53:38.608Z,12.90
2023-01-11T11:56:17.443Z,12.93
2023-01-11T11:58:46.660Z,9.13
2023-01-11T12:01:28.142Z,11.87
2023-01-11T12:04:00.517Z,13.60
2023-01-11T12:06:30.585Z,9.23
2023-01-11T12:09:02.717Z,10.43
2023-01-11T12:11:35.098Z,9.77
2023-01-11T12:14:07.329Z,9.90
2023-01-11T12:16:41.434Z,13.00
2023-01-11T12:19:30.569Z,8.80
2023-01-11T12:22:20.323Z,7.93
2023-01-11T12:24:49.999Z,11.07
2023-01-11T12:27:31.079Z,11.60
2023-01-11T12:30:11.239Z,11.53
2023-01-11T12:33:11.937Z,8.37
2023-01-11T12:35:55.835Z,11.00
2023-01-11T12:38:37.021Z,11.43
2023-01-11T12:41:43.745Z,11.40
2023-01-11T12:44:18.237Z,7.63
2023-01-11T12:46:59.880Z,15.00
2023-01-11T12:49:37.867Z,14.37
2023-01-11T12:52:29.202Z,14.93
2023-01-11T12:55:21.577Z,13.17
2023-01-11T12:58:02.248Z,13.63
2023-01-11T13:00:53.473Z,9.73
2023-01-11T13:03:47.650Z,14.47
2023-01-11T13:06:24.470Z,17.23
2023-01-11T13:09:01.154Z,17.53
2023-01-11T13:11:43.625Z,13.90
2023-01-11T13:14:40.717Z,11.53
2023-01-11T13:17:21.045Z,9.40
2023-01-11T13:19:57.833Z,11.47
2023-01-11T13:22:37.883Z,13.97
2023-01-11T13:25:18.616Z,9.20
2023-01-11T13:27:47.785Z,10.33
2023-01-11T13:30:20.065Z,13.77
2023-01-11T13:32:54.252Z,9.70
2023-01-11T13:35:32.062Z,13.07
2023-01-11T13:38:10.834Z,10.33
2023-01-11T13:40:45.661Z,10.17
2023-01-11T13:43:21.176Z,12.53
2023-01-11T13:45:57.180Z,10.63
2023-01-11T13:48:29.428Z,13.13
2023-01-11T13:51:04.638Z,13.67
2023-01-11T13:53:40.021Z,9.47
2023-01-11T13:56:17.147Z,11.80
2023-01-11T13:58:53.130Z,7.37
2023-01-11T14:01:29.916Z,13.77
2023-01-11T14:04:02.069Z,9.63
2023-01-11T14:06:51.455Z,13.20
2023-01-11T14:09:42.548Z,10.00
2023-01-11T14:12:28.036Z,8.00
2023-01-11T14:15:07.397Z,8.03
2023-01-11T14:17:52.867Z,13.60
2023-01-11T14:20:29.240Z,15.13
2023-01-11T14:23:07.580Z,8.80
2023-01-11T14:25:49.397Z,11.03
2023-01-11T14:28:46.285Z,18.73
2023-01-11T14:31:26.846Z,15.33
2023-01-11T14:34:20.989Z,13.67
2023-01-11T14:37:03.033Z,15.37
2023-01-11T14:40:18.418Z,11.07
2023-01-11T14:43:18.437Z,9.53
2023-01-11T14:46:20.415Z,13.20
2023-01-11T14:48:59.995Z,14.13
2023-01-11T14:51:33.963Z,13.40
2023-01-11T14:54:07.815Z,9.43
2023-01-11T14:56:52.054Z,11.13
2023-01-11T14:59:26.616Z,13.37
2023-01-11T15:02:26.804Z,13.03
2023-01-11T15:05:31.441Z,8.30
2023-01-11T15:08:20.827Z,9.23
2023-01-11T15:10:54.505Z,9.40
2023-01-11T15:13:25.497Z,13.93
2023-01-11T15:16:23.765Z,13.77
2023-01-11T15:18:56.654Z,8.00
2023-01-11T15:21:26.201Z,13.17
2023-01-11T15:23:56.479Z,11.20
2023-01-11T15:26:27.122Z,13.93
2023-01-11T15:28:57.036Z,11.07
2023-01-11T15:31:34.951Z,16.40
2023-01-11T15:34:19.870Z,16.13
2023-01-11T15:36:56.887Z,12.60
2023-01-11T15:39:34.569Z,9.07
2023-01-11T15:42:21.914Z,19.40
2023-01-11T15:45:26.586Z,11.00
2023-01-11T15:48:09.566Z,14.77
2023-01-11T15:51:12.897Z,11.90
2023-01-11T15:53:57.613Z,10.77
2023-01-11T15:56:47.773Z,12.47
2023-01-11T15:59:46.627Z,12.40
2023-01-11T16:02:45.734Z,11.40
2023-01-11T16:05:21.834Z,13.23
2023-01-11T16:07:59.671Z,12.57
2023-01-11T16:10:51.801Z,15.30
2023-01-11T16:13:39.523Z,11.47
2023-01-11T16:16:17.289Z,14.03
2023-01-11T16:18:48.500Z,10.03
2023-01-11T16:21:21.320Z,11.17
2023-01-11T16:23:51.044Z,12.37
2023-01-11T16:26:22.294Z,16.37
2023-01-11T16:28:52.757Z,10.10
2023-01-11T16:31:23.618Z,16.67
2023-01-11T16:33:52.368Z,10.30
2023-01-11T16:36:22.712Z,13.27
2023-01-11T16:39:03.498Z,15.10
2023-01-11T16:41:45.175Z,11.60
2023-01-11T16:44:23.308Z,15.13
2023-01-11T16:47:11.300Z,21.70
2023-01-11T16:49:40.877Z,10.53
2023-01-11T16:52:38.785Z,12.83
2023-01-11T16:55:36.899Z,11.27
2023-01-11T16:58:07.703Z,12.10
2023-01-11T17:00:40.858Z,11.93
2023-01-11T17:03:25.038Z,11.17
2023-01-11T17:06:03.006Z,12.63
2023-01-11T17:08:34.847Z,13.33
2023-01-11T17:11:18.543Z,14.00
2023-01-11T17:14:02.371Z,13.73
2023-01-11T17:16:37.665Z,14.57
2023-01-11T17:19:10.055Z,14.87
2023-01-11T17:21:38.171Z,14.40
2023-01-11T17:24:08.152Z,16.17
2023-01-11T17:26:46.128Z,14.73
2023-01-11T17:29:21.366Z,17.10
2023-01-11T17:31:49.649Z,13.30
2023-01-11T17:34:24.527Z,11.63
2023-01-11T17:36:52.728Z,15.13
2023-01-11T17:39:25.848Z,13.40
2023-01-11T17:42:16.185Z,18.83
2023-01-11T17:45:03.360Z,12.57
2023-01-11T17:47:32.182Z,13.60
2023-01-11T17:50:02.271Z,17.73
2023-01-11T17:52:43.855Z,12.60
2023-01-11T17:55:18.245Z,12.07
2023-01-11T17:58:10.521Z,14.23
2023-01-11T18:00:38.768Z,12.60
2023-01-11T18:03:11.041Z,22.63
2023-01-11T18:05:40.499Z,11.43
2023-01-11T18:08:18.978Z,10.77
2023-01-11T18:10:52.128Z,9.87
2023-01-11T18:13:26.841Z,11.60
2023-01-11T18:15:55.260Z,18.70
2023-01-11T18:18:42.460Z,15.33
2023-01-11T18:21:40.551Z,14.33
2023-01-11T18:24:38.951Z,14.67
2023-01-11T18:27:40.098Z,12.90
2023-01-11T18:30:36.979Z,13.53
2023-01-11T18:33:12.092Z,15.10
2023-01-11T18:35:44.000Z,13.07
2023-01-11T18:38:16.068Z,15.90
2023-01-11T18:40:44.590Z,12.27
2023-01-11T18:43:14.476Z,12.40
2023-01-11T18:45:44.822Z,8.77
2023-01-11T18:48:16.783Z,11.43
2023-01-11T18:50:46.032Z,10.43
2023-01-11T18:53:16.059Z,14.50
2023-01-11T18:55:44.576Z,11.30
2023-01-11T18:58:15.150Z,11.23
2023-01-11T19:00:44.736Z,14.53
2023-01-11T19:05:46.829Z,12.47
2023-01-11T19:08:18.260Z,23.53
2023-01-11T19:10:48.262Z,10.47
2023-01-11T19:13:19.195Z,15.27
2023-01-11T19:15:51.775Z,12.13
2023-01-11T19:18:22.528Z,11.67
2023-01-11T19:20:50.767Z,7.80
2023-01-11T19:23:21.528Z,13.93
2023-01-11T19:25:57.767Z,9.03
2023-01-11T19:28:27.951Z,10.03
2023-01-11T19:30:59.876Z,11.03
2023-01-11T19:33:30.490Z,9.03
2023-01-11T19:35:58.646Z,10.07
2023-01-11T19:38:27.495Z,8.50
2023-01-11T19:40:55.618Z,14.23
2023-01-11T19:43:23.684Z,11.03
2023-01-11T19:45:56.802Z,10.00
2023-01-11T19:48:26.818Z,8.93
2023-01-11T19:51:02.671Z,14.33
2023-01-11T19:53:31.383Z,11.30
2023-01-11T19:56:02.150Z,12.70
2023-01-11T19:58:33.417Z,11.27
2023-01-11T20:01:02.375Z,15.30
2023-01-11T20:03:31.820Z,10.70
2023-01-11T20:06:07.589Z,11.20
2023-01-11T20:08:40.632Z,10.30
2023-01-11T20:11:11.511Z,5.80
2023-01-11T20:13:42.309Z,8.37
2023-01-11T20:16:14.427Z,9.67
2023-01-11T20:18:43.920Z,10.33
2023-01-11T20:21:13.565Z,13.83
2023-01-11T20:23:41.807Z,12.40
2023-01-11T20:26:14.849Z,12.07
2023-01-11T20:28:43.676Z,15.97
2023-01-11T20:31:12.807Z,13.20
2023-01-11T20:33:44.568Z,12.10
2023-01-11T20:36:14.615Z,10.20
2023-01-11T20:38:42.884Z,7.90
2023-01-11T20:41:11.983Z,9.90
2023-01-11T20:43:40.590Z,10.10
2023-01-11T20:46:08.864Z,11.60
2023-01-11T20:48:40.023Z,13.30
2023-01-11T20:51:09.515Z,15.63
2023-01-11T20:53:37.683Z,7.47
2023-01-11T20:56:08.828Z,14.47
2023-01-11T20:58:39.376Z,10.27
2023-01-11T21:01:08.702Z,7.27
2023-01-11T21:03:37.176Z,10.40
2023-01-11T21:06:11.005Z,5.57
2023-01-11T21:08:39.183Z,12.93
2023-01-11T21:11:08.466Z,10.60
2023-01-11T21:13:39.221Z,13.43
2023-01-11T21:16:08.687Z,7.03
2023-01-11T21:18:37.739Z,11.73
2023-01-11T21:21:07.871Z,12.83
2023-01-11T21:23:37.420Z,9.70
2023-01-11T21:26:12.728Z,11.13
2023-01-11T21:28:41.287Z,16.00
2023-01-11T21:31:11.259Z,12.30
2023-01-11T21:33:40.226Z,10.33
2023-01-11T21:36:11.763Z,10.20
2023-01-11T21:38:41.554Z,15.33
2023-01-11T21:41:11.489Z,14.67
2023-01-11T21:43:43.738Z,12.10
2023-01-11T21:46:13.078Z,11.70
2023-01-11T21:48:41.394Z,11.90
2023-01-11T21:51:10.365Z,14.43
2023-01-11T21:53:39.978Z,11.23
2023-01-11T21:56:09.344Z,13.67
2023-01-11T21:58:37.484Z,10.23
2023-01-11T22:01:11.220Z,12.07
2023-01-11T22:03:42.157Z,9.37
2023-01-11T22:06:12.498Z,6.97
2023-01-11T22:08:46.030Z,17.07
2023-01-11T22:11:15.601Z,9.00
2023-01-11T22:13:46.495Z,13.70
2023-01-11T22:16:16.526Z,10.43
2023-01-11T22:18:47.302Z,10.53
2023-01-11T22:21:17.894Z,7.90
2023-01-11T22:23:48.547Z,10.43
2023-01-11T22:26:18.745Z,10.07
2023-01-11T22:29:07.252Z,14.67
2023-01-11T22:31:35.419Z,10.47
2023-01-11T22:34:03.517Z,9.70
2023-01-11T22:36:31.903Z,7.33
2023-01-11T22:39:03.870Z,11.93
2023-01-11T22:41:32.197Z,12.50
2023-01-11T22:44:00.507Z,11.40
2023-01-11T22:46:28.725Z,11.80
2023-01-11T22:48:57.007Z,11.67
2023-01-11T22:51:26.529Z,12.67
2023-01-11T22:53:55.835Z,13.57
2023-01-11T22:56:29.237Z,7.43
2023-01-11T22:58:58.246Z,18.83
2023-01-11T23:01:27.844Z,14.60
2023-01-11T23:03:59.478Z,7.20
2023-01-11T23:06:29.578Z,11.93
2023-01-11T23:09:00.682Z,16.87
2023-01-11T23:11:50.020Z,13.27
2023-01-11T23:14:20.176Z,10.07
2023-01-11T23:16:51.533Z,7.97
2023-01-11T23:19:20.733Z,7.53
2023-01-11T23:21:49.322Z,9.20
2023-01-11T23:24:19.875Z,4.90
2023-01-11T23:26:49.375Z,15.63
2023-01-11T23:29:17.836Z,8.47
2023-01-11T23:31:48.372Z,11.37
2023-01-11T23:34:16.627Z,10.53
2023-01-11T23:36:45.027Z,8.20
2023-01-11T23:39:14.650Z,8.40
2023-01-11T23:42:00.511Z,9.27
2023-01-11T23:44:32.582Z,8.77
2023-01-11T23:47:18.010Z,6.67
2023-01-11T23:49:49.448Z,8.87
2023-01-11T23:52:21.675Z,9.67
2023-01-11T23:54:52.301Z,11.37
2023-01-11T23:57:21.780Z,7.63
2023-01-11T23:59:53.326Z,8.40
